Flight Track Log - Related Links

Times and Time Zones

All times are in EDT time to prevent confusion due to time zone crossing. See the SWA127 flight status page for this flight to view local times or setup timezone preferences in your user account.

Time Position Orientation Groundspeed Altitude Reporting Facility
EDT Latitude Longitude Course Direction KTS MPH feet Rate Location/Type
Tue 08:46:23 AM 39.3167 -94.7167 346° North 147 169 1,600  Level Kansas TRACON
Tue 08:47:29 AM 39.3617 -94.7317 346° North 169 194 3,200 1,762 Climbing Kansas Center
Tue 08:48:29 AM 39.3561 -94.8033 264° West 252 290 5,300 2,661 Climbing Kansas Center
Tue 08:49:33 AM 39.2836 -94.8214 191° South 273 314 8,700 2,613 Climbing Kansas Center
Tue 08:50:33 AM 39.2172 -94.8389 192° South 254 292 10,700 2,557 Climbing Kansas Center
Tue 08:51:35 AM 39.1269 -94.8650 193° South 293 337 13,900 2,371 Climbing Kansas Center
Tue 08:52:37 AM 39.0500 -94.8856 192° South 293 337 15,600 1,500 Climbing Kansas Center
Tue 08:53:39 AM 38.9633 -94.9100 192° South 325 374 17,000 2,146 Climbing Kansas Center
Tue 08:54:40 AM 38.8628 -94.9381 192° South 324 373 20,000 2,195 Climbing Kansas Center
Tue 08:55:42 AM 38.7792 -94.9611 192° South 320 368 21,500 1,377 Climbing Kansas Center
Tue 08:56:42 AM 38.6747 -94.9894 192° South 343 395 22,800 1,180 Climbing Kansas Center
Tue 08:57:44 AM 38.5778 -95.0153 192° South 367 422 23,900 1,344 Climbing Kansas Center
Tue 08:58:47 AM 38.4778 -95.0425 192° South 380 437 25,600 1,258 Climbing Kansas Center
Tue 08:59:48 AM 38.3564 -95.0758 192° South 401 461 26,500 1,328 Climbing Kansas Center
Tue 09:00:49 AM 38.2486 -95.1042 192° South 409 471 28,300 1,869 Climbing Kansas Center
Tue 09:01:50 AM 38.1278 -95.1422 194° South 400 460 30,300 1,475 Climbing Kansas Center
Tue 09:02:51 AM 38.0256 -95.1775 195° South 396 456 31,300 1,200 Climbing Kansas Center
Tue 09:03:55 AM 37.9089 -95.2167 195° South 395 455 32,800 1,248 Climbing Kansas Center
Tue 09:04:56 AM 37.8028 -95.2556 196° South 396 456 33,900 992 Climbing Kansas Center
Tue 09:05:56 AM 37.6978 -95.2914 195° South 392 451 34,800 942 Climbing Kansas Center
Tue 09:06:57 AM 37.5914 -95.3247 194° South 391 450 35,800 585 Climbing Kansas Center
Tue 09:07:59 AM 37.4872 -95.3600 195° South 387 445 36,000 97 Climbing Kansas Center
Tue 09:09:01 AM 37.3831 -95.3953 195° South 387 445 36,000  Level Kansas Center
Tue 09:10:01 AM 37.2789 -95.4306 195° South 387 445 36,000  Level Kansas Center
Tue 09:11:05 AM 37.1764 -95.4647 195° South 383 441 36,000  Level Kansas Center
Tue 09:12:05 AM 37.0525 -95.5050 195° South 383 441 36,000  Level Kansas Center
Tue 09:13:07 AM 36.9492 -95.5397 195° South 383 441 36,000  Level Kansas Center
Tue 09:14:08 AM 36.8444 -95.5756 195° South 387 445 36,000  Level Kansas Center
Tue 09:15:11 AM 36.7369 -95.6108 195° South 395 455 36,000  Level Kansas Center
Tue 09:16:12 AM 36.6322 -95.6458 195° South 394 453 36,000  Level Kansas Center
Tue 09:17:13 AM 36.5272 -95.6803 195° South 394 453 36,000  Level Kansas Center
Tue 09:18:13 AM 36.4228 -95.7144 195° South 393 452 36,000  Level Kansas Center
Tue 09:19:14 AM 36.2969 -95.7556 195° South 394 453 36,000  Level Kansas Center
Tue 09:20:18 AM 36.1911 -95.7900 195° South 395 455 36,000  Level Kansas Center
Tue 09:21:19 AM 36.0858 -95.8264 196° South 394 453 36,000  Level Kansas Center
Tue 09:22:20 AM 35.9808 -95.8642 196° South 393 452 36,000  Level Kansas Center
Tue 09:23:21 AM 35.8758 -95.9000 195° South 392 451 36,000  Level Kansas Center
Tue 09:24:24 AM 35.7728 -95.9361 196° South 389 448 36,000  Level Kansas Center
Tue 09:25:26 AM 35.6689 -95.9719 196° South 386 444 36,000  Level Kansas Center
Tue 09:26:03 AM 35.5861 -96.0047 198° South 392 451 36,000  Level Fort Center
Tue 09:27:03 AM 35.4822 -96.0394 195° South 392 451 36,000  Level Fort Center
Tue 09:28:03 AM 35.3783 -96.0769 196° South 392 451 36,000  Level Fort Center
Tue 09:29:03 AM 35.2744 -96.1092 194° South 392 451 36,000  Level Fort Center
Tue 09:30:03 AM 35.1706 -96.1436 195° South 392 451 36,000  Level Fort Center
Tue 09:31:03 AM 35.0686 -96.1808 197° South 392 451 36,000  Level Fort Center
Tue 09:32:03 AM 34.9667 -96.2178 197° South 392 451 36,000  Level Fort Center
Tue 09:33:03 AM 34.8628 -96.2519 195° South 392 451 36,000  Level Fort Center
Tue 09:34:03 AM 34.7589 -96.2864 195° South 392 451 36,000  Level Fort Center
Tue 09:35:03 AM 34.6547 -96.3231 196° South 392 451 36,000  Level Fort Center
Tue 09:36:03 AM 34.5528 -96.3569 195° South 392 451 36,000  Level Fort Center
Tue 09:37:03 AM 34.4467 -96.3911 195° South 392 451 36,000  Level Fort Center
Tue 09:38:03 AM 34.3428 -96.4250 195° South 398 458 36,000  Level Fort Center
Tue 09:39:03 AM 34.2408 -96.4614 196° South 387 445 36,000  Level Fort Center
Tue 09:40:03 AM 34.1367 -96.4975 196° South 392 451 36,000  Level Fort Center
Tue 09:41:03 AM 34.0306 -96.5314 195° South 392 451 36,000  Level Fort Center
Tue 09:42:03 AM 33.9389 -96.5622 196° South 392 451 36,000  Level Fort Center
Tue 09:43:03 AM 33.8347 -96.5958 195° South 392 451 36,000  Level Fort Center
Tue 09:44:03 AM 33.7286 -96.6317 196° South 397 457 36,000  Level Fort Center
Tue 09:45:03 AM 33.6222 -96.6650 195° South 392 451 36,000  Level Fort Center
Tue 09:46:03 AM 33.5181 -96.7008 196° South 397 457 36,000  Level Fort Center
Tue 09:47:03 AM 33.4119 -96.7367 196° South 397 457 36,000  Level Fort Center
Tue 09:48:03 AM 33.2953 -96.7722 194° South 397 457 36,000  Level Fort Center
Tue 09:49:03 AM 33.1908 -96.8028 194° South 392 451 36,000  Level Fort Center
Tue 09:50:03 AM 33.0783 -96.7986 178° South 397 457 36,000  Level Fort Center
Tue 09:51:03 AM 32.9656 -96.7944 178° South 404 465 36,000  Level Fort Center
Tue 09:52:03 AM 32.8528 -96.7953 180° South 404 465 36,000  Level Fort Center
Tue 09:53:03 AM 32.7400 -96.7936 179° South 404 465 36,000  Level Fort Center
Tue 09:54:03 AM 32.6378 -96.7892 178° South 404 465 36,000  Level Fort Center
Tue 09:55:03 AM 32.5292 -96.7875 179° South 404 465 36,000  Level Fort Center
Tue 09:56:03 AM 32.4164 -96.7858 179° South 404 465 36,000  Level Fort Center
Tue 09:57:03 AM 32.3058 -96.7817 178° South 396 456 36,000  Level Fort Center
Tue 09:58:03 AM 32.1825 -96.7800 179° South 396 456 36,000  Level Fort Center
Tue 09:59:03 AM 32.0719 -96.7758 178° South 406 467 36,000  Level Fort Center
Tue 10:00:03 AM 31.9611 -96.7719 178° South 399 459 36,000  Level Fort Center
Tue 10:01:03 AM 31.8631 -96.7750 182° South 399 459 36,000  Level Fort Center
Tue 10:02:03 AM 31.7525 -96.7708 178° South 404 465 36,000  Level Fort Center
Tue 10:03:03 AM 31.6314 -96.7667 178° South 398 458 36,000  Level Fort Center
Tue 10:04:11 AM 31.5067 -96.7639 179° South 399 459 36,000  Level Houston Center
Tue 10:05:13 AM 31.3956 -96.7606 179° South 395 455 36,000  Level Houston Center
Tue 10:06:15 AM 31.2828 -96.7575 179° South 397 457 36,000 -871 Level Houston Center
Tue 10:07:17 AM 31.1714 -96.7131 161° South 418 481 34,200 -2,468 Descending Houston Center
Tue 10:08:19 AM 31.0603 -96.6553 156° South 429 494 30,900 -2,903 Descending Houston Center
Tue 10:09:21 AM 30.9517 -96.5967 155° Southeast 425 489 28,200 -2,468 Descending Houston Center
Tue 10:10:23 AM 30.8456 -96.5425 156° South 413 475 25,800 -2,226 Descending Houston Center
Tue 10:11:25 AM 30.7472 -96.4897 155° Southeast 389 448 23,600 -2,177 Descending Houston Center
Tue 10:12:27 AM 30.6489 -96.4383 156° South 381 438 21,300 -2,371 Descending Houston Center
Tue 10:13:29 AM 30.5344 -96.3761 155° Southeast 385 443 18,700 -2,357 Descending Houston Center
Tue 10:14:19 AM 30.4558 -96.3375 157° South 373 429 16,900 -2,233 Descending Houston Center
Tue 10:14:55 AM 30.4011 -96.3094 156° South 356 410 15,500 -2,108 Descending Houston Center
Tue 10:15:33 AM 30.3489 -96.2817 155° Southeast 356 410 14,300 -2,032 Descending Houston Center
Tue 10:15:57 AM 30.3131 -96.2614 154° Southeast 346 398 13,400 -2,032 Descending Houston Center
Tue 10:16:35 AM 30.2617 -96.2350 156° South 345 397 12,200 -2,182 Descending Houston Center
Tue 10:16:52 AM 30.2319 -96.2197 156° South 341 392 11,400 -1,161 Descending Houston Center
Tue 10:17:37 AM 30.1758 -96.1906 156° South 336 387 11,000 -364 Descending Houston Center
Tue 10:17:58 AM 30.1356 -96.1703 156° South 335 386 11,000  Level Houston Center
Tue 10:18:39 AM 30.0947 -96.1483 155° Southeast 336 387 11,000  Level Houston Center
Tue 10:19:00 AM 30.0497 -96.1244 155° Southeast 337 388 11,000  Level Houston Center
Tue 10:19:42 AM 29.9922 -96.0939 155° Southeast 337 388 11,000  Level Houston Center
Tue 10:20:01 AM 29.9661 -96.0783 153° Southeast 333 383 11,000  Level Houston Center
Tue 10:20:44 AM 29.9083 -96.0483 156° South 333 383 11,000  Level Houston Center
Tue 10:21:07 AM 29.8717 -96.0289 155° Southeast 330 380 11,000 -194 Level Houston Center
Tue 10:21:46 AM 29.8217 -96.0031 156° South 328 377 10,800 -655 Descending Houston Center
Tue 10:22:02 AM 29.7967 -95.9892 154° Southeast 313 360 10,400 -1,258 Descending Houston Center
Tue 10:22:48 AM 29.7483 -95.9589 151° Southeast 304 350 9,500 -1,377 Descending Houston Center
Tue 10:23:03 AM 29.7272 -95.9369 138° Southeast 293 337 9,000 -1,452 Descending Houston Center
Tue 10:23:50 AM 29.6872 -95.9011 142° Southeast 286 329 8,000 -1,321 Descending Houston Center
Tue 10:24:52 AM 29.6264 -95.8478 143° Southeast 280 322 6,600 -968 Descending Houston Center
Tue 10:25:54 AM 29.5714 -95.7947 140° Southeast 261 300 6,000 -290 Descending Houston Center
Tue 10:26:56 AM 29.5911 -95.6947 77° East 287 330 6,000  Level Houston Center
Tue 10:28:02 AM 29.6367 -95.6039 60° Northeast 290 334 6,000 -528 Level Houston Center
Tue 10:29:01 AM 29.6861 -95.5447 46° Northeast 295 339 4,900 -645 Descending Houston Center
Tue 10:30:03 AM 29.7358 -95.4875 45° Northeast 267 307 4,700 -726 Descending Houston Center
Tue 10:31:05 AM 29.7683 -95.4392 52° Northeast 229 264 3,400 -1,210 Descending Houston Center
Tue 10:32:07 AM 29.7444 -95.3964 123° Southeast 176 203 2,200 -787 Descending Houston Center
Tue 10:33:07 AM 29.7108 -95.3569 134° Southeast 125 144 1,800 -387 Descending Houston Center
Tue 10:33:09 AM 29.7108 -95.3569 134° Southeast 155 178 1,800 -689 Level Houston Center
Tue 10:34:08 AM 29.6872 -95.3286 134° Southeast 118 136 1,100 -629 Descending Houston Center
Tue 10:35:13 AM 29.6647 -95.3025 135° Southeast 126 145 500 -472 Descending Houston Center
Tue 10:36:15 AM 29.6372 -95.2703 134° Southeast 124 143 100 -387 Descending Houston Center

Login

Don't have an account? Register now (free) for customized features, flight alerts, and more!